createdAt,value
2019-04-20T00:01:01.569Z,11.70
2019-04-20T00:03:38.119Z,11.50
2019-04-20T00:06:03.538Z,11.40
2019-04-20T00:08:36.517Z,11.30
2019-04-20T00:11:11.674Z,11.20
2019-04-20T00:13:48.793Z,11.30
2019-04-20T00:16:08.225Z,11.20
2019-04-20T00:18:43.017Z,11.10
2019-04-20T00:21:28.879Z,11.10
2019-04-20T00:24:06.985Z,10.90
2019-04-20T00:27:04.876Z,10.70
2019-04-20T00:29:21.687Z,10.50
2019-04-20T00:31:45.560Z,10.20
2019-04-20T00:34:13.872Z,10.30
2019-04-20T00:36:39.071Z,9.80
2019-04-20T00:39:11.405Z,10.00
2019-04-20T00:41:49.900Z,9.90
2019-04-20T00:44:17.135Z,9.90
2019-04-20T00:46:58.748Z,9.40
2019-04-20T00:49:30.588Z,9.70
2019-04-20T00:52:12.770Z,9.90
2019-04-20T00:54:18.042Z,9.80
2019-04-20T00:56:47.923Z,10.00
2019-04-20T00:59:31.629Z,9.40
2019-04-20T01:02:09.064Z,9.60
2019-04-20T01:04:42.763Z,9.40
2019-04-20T01:07:17.666Z,9.40
2019-04-20T01:09:54.262Z,9.50
2019-04-20T01:12:28.004Z,9.60
2019-04-20T01:15:00.336Z,9.10
2019-04-20T01:17:26.492Z,9.20
2019-04-20T01:19:56.172Z,9.00
2019-04-20T01:22:28.610Z,9.30
2019-04-20T01:25:07.873Z,9.50
2019-04-20T01:27:42.515Z,9.30
2019-04-20T01:30:10.595Z,9.00
2019-04-20T01:32:50.664Z,9.20
2019-04-20T01:35:21.847Z,9.20
2019-04-20T01:37:52.983Z,9.50
2019-04-20T01:40:09.930Z,8.70
2019-04-20T01:42:40.378Z,8.30
2019-04-20T01:45:19.122Z,8.80
2019-04-20T01:47:46.158Z,8.80
2019-04-20T01:50:17.062Z,8.80
2019-04-20T01:52:53.846Z,8.40
2019-04-20T01:55:38.653Z,8.70
2019-04-20T01:58:17.598Z,8.30
2019-04-20T02:00:36.557Z,8.40
2019-04-20T02:03:06.962Z,8.60
2019-04-20T02:05:38.642Z,8.60
2019-04-20T02:08:13.867Z,8.70
2019-04-20T02:10:46.817Z,8.30
2019-04-20T02:13:11.176Z,8.60
2019-04-20T02:15:47.912Z,8.30
2019-04-20T02:18:29.707Z,8.60
2019-04-20T02:21:00.234Z,8.80
2019-04-20T02:23:29.283Z,8.80
2019-04-20T02:25:46.285Z,8.60
2019-04-20T02:28:34.689Z,8.60
2019-04-20T02:31:26.932Z,8.30
2019-04-20T02:33:58.977Z,8.20
2019-04-20T02:36:33.662Z,8.50
2019-04-20T02:41:35.763Z,8.10
2019-04-20T02:44:24.142Z,8.30
2019-04-20T02:46:37.265Z,8.30
2019-04-20T02:49:26.332Z,8.40
2019-04-20T02:51:41.976Z,8.30
2019-04-20T02:59:42.291Z,7.80
2019-04-20T03:01:30.941Z,8.00
2019-04-20T03:03:50.438Z,8.10
2019-04-20T03:06:26.462Z,7.80
2019-04-20T03:09:10.853Z,7.60
2019-04-20T03:11:46.488Z,7.70
2019-04-20T03:14:09.592Z,7.50
2019-04-20T03:16:38.722Z,7.60
2019-04-20T03:19:14.132Z,7.40
2019-04-20T03:21:54.169Z,7.50
2019-04-20T03:24:28.238Z,7.70
2019-04-20T03:26:48.079Z,7.50
2019-04-20T03:29:15.870Z,7.50
2019-04-20T03:32:44.551Z,7.50
2019-04-20T03:35:03.945Z,7.50
2019-04-20T03:37:22.226Z,7.30
2019-04-20T03:39:42.990Z,7.40
2019-04-20T03:41:58.833Z,7.50
2019-04-20T03:44:32.172Z,7.50
2019-04-20T03:47:05.233Z,7.40
2019-04-20T03:49:54.851Z,7.50
2019-04-20T03:52:27.427Z,7.30
2019-04-20T03:55:16.123Z,6.90
2019-04-20T03:57:57.170Z,7.20
2019-04-20T04:00:36.237Z,7.30
2019-04-20T04:03:21.695Z,7.00
2019-04-20T04:05:51.925Z,7.20
2019-04-20T04:08:21.285Z,7.00
2019-04-20T04:11:04.794Z,7.00
2019-04-20T04:13:18.745Z,6.80
2019-04-20T04:15:55.568Z,6.90
2019-04-20T04:18:29.724Z,6.80
2019-04-20T04:21:03.120Z,6.80
2019-04-20T04:23:44.826Z,7.00
2019-04-20T04:26:12.905Z,7.00
2019-04-20T04:28:43.312Z,7.10
2019-04-20T04:31:16.559Z,7.10
2019-04-20T04:34:02.564Z,7.10
2019-04-20T04:36:19.383Z,7.10
2019-04-20T04:39:08.830Z,7.20
2019-04-20T04:43:54.244Z,6.70
2019-04-20T04:46:07.895Z,7.40
2019-04-20T04:48:42.711Z,7.40
2019-04-20T04:51:15.814Z,7.20
2019-04-20T04:53:50.560Z,7.30
2019-04-20T04:56:16.201Z,6.90
2019-04-20T04:58:42.740Z,7.00
2019-04-20T05:01:18.553Z,6.90
2019-04-20T05:04:11.522Z,7.00
2019-04-20T05:06:31.780Z,6.60
2019-04-20T05:08:53.066Z,6.80
2019-04-20T05:11:19.597Z,6.80
2019-04-20T05:13:57.853Z,6.90
2019-04-20T05:16:42.236Z,7.20
2019-04-20T05:19:13.483Z,7.20
2019-04-20T05:21:58.646Z,7.20
2019-04-20T05:24:27.021Z,7.30
2019-04-20T05:27:01.925Z,7.40
2019-04-20T05:29:17.709Z,7.50
2019-04-20T05:31:49.368Z,7.60
2019-04-20T05:34:43.652Z,7.50
2019-04-20T05:37:17.354Z,7.40
2019-04-20T05:39:42.778Z,7.30
2019-04-20T05:42:13.325Z,7.40
2019-04-20T05:44:44.271Z,7.60
2019-04-20T05:47:13.655Z,7.90
2019-04-20T05:49:40.354Z,8.10
2019-04-20T05:52:31.588Z,8.20
2019-04-20T05:54:51.201Z,8.30
2019-04-20T05:57:25.167Z,8.30
2019-04-20T05:59:57.205Z,8.40
2019-04-20T06:02:25.037Z,8.50
2019-04-20T06:05:08.489Z,8.60
2019-04-20T06:07:24.966Z,8.80
2019-04-20T06:09:59.440Z,8.90
2019-04-20T06:12:26.335Z,9.10
2019-04-20T06:14:52.038Z,9.30
2019-04-20T06:17:31.837Z,9.50
2019-04-20T06:20:09.008Z,9.70
2019-04-20T06:22:59.838Z,9.80
2019-04-20T06:25:33.402Z,10.10
2019-04-20T06:27:46.035Z,10.30
2019-04-20T06:30:13.987Z,10.50
2019-04-20T06:33:45.125Z,10.70
2019-04-20T06:36:16.355Z,10.90
2019-04-20T06:38:43.128Z,11.30
2019-04-20T06:41:05.327Z,11.50
2019-04-20T06:43:36.888Z,11.80
2019-04-20T06:46:09.825Z,12.10
2019-04-20T06:48:40.262Z,12.40
2019-04-20T06:51:03.515Z,12.70
2019-04-20T06:53:45.266Z,12.70
2019-04-20T06:56:15.610Z,12.90
2019-04-20T06:58:49.835Z,13.10
2019-04-20T07:01:15.266Z,13.30
2019-04-20T07:04:04.236Z,13.30
2019-04-20T07:06:34.093Z,13.60
2019-04-20T07:08:58.620Z,14.00
2019-04-20T07:11:24.087Z,14.50
2019-04-20T07:13:42.830Z,14.70
2019-04-20T07:16:37.954Z,15.00
2019-04-20T07:19:06.435Z,15.10
2019-04-20T07:22:07.007Z,15.00
2019-04-20T07:24:30.659Z,15.20
2019-04-20T07:27:00.752Z,15.50
2019-04-20T07:29:36.243Z,15.60
2019-04-20T07:32:00.185Z,15.50
2019-04-20T07:34:33.478Z,15.90
2019-04-20T07:37:27.918Z,16.20
2019-04-20T07:39:40.722Z,16.20
2019-04-20T07:42:08.175Z,16.50
2019-04-20T07:44:44.005Z,16.30
2019-04-20T07:47:13.885Z,16.60
2019-04-20T07:49:44.320Z,17.00
2019-04-20T07:51:53.851Z,16.70
2019-04-20T07:55:03.515Z,17.00
2019-04-20T07:57:14.580Z,17.00
2019-04-20T07:59:39.758Z,17.00
2019-04-20T08:02:33.872Z,17.10
2019-04-20T08:04:53.840Z,17.40
2019-04-20T08:07:09.498Z,17.60
2019-04-20T08:09:46.539Z,17.50
2019-04-20T08:12:51.581Z,17.70
2019-04-20T08:15:27.377Z,17.80
2019-04-20T08:17:50.956Z,17.90
2019-04-20T08:20:16.181Z,18.10
2019-04-20T08:22:53.204Z,17.90
2019-04-20T08:25:15.339Z,18.10
2019-04-20T08:27:50.973Z,17.90
2019-04-20T08:30:57.185Z,18.20
2019-04-20T08:33:36.424Z,18.10
2019-04-20T08:36:10.804Z,18.60
2019-04-20T08:41:02.963Z,18.70
2019-04-20T08:46:17.829Z,18.70
2019-04-20T08:48:46.674Z,19.00
2019-04-20T08:51:12.266Z,19.40
2019-04-20T08:53:47.115Z,19.40
2019-04-20T08:56:11.939Z,19.30
2019-04-20T08:58:31.566Z,19.50
2019-04-20T09:01:04.878Z,19.70
2019-04-20T09:03:48.757Z,19.80
2019-04-20T09:06:21.611Z,19.90
2019-04-20T09:08:48.505Z,20.00
2019-04-20T09:11:23.234Z,20.00
2019-04-20T09:13:43.132Z,20.00
2019-04-20T09:16:10.950Z,20.40
2019-04-20T09:18:52.416Z,20.40
2019-04-20T09:21:27.138Z,20.60
2019-04-20T09:24:16.219Z,20.70
2019-04-20T09:26:43.336Z,21.00
2019-04-20T09:29:07.121Z,21.20
2019-04-20T09:31:43.691Z,21.30
2019-04-20T09:34:20.555Z,21.30
2019-04-20T09:36:49.811Z,20.80
2019-04-20T09:39:30.396Z,21.10
2019-04-20T09:42:02.165Z,21.40
2019-04-20T09:44:38.680Z,21.40
2019-04-20T09:47:05.039Z,21.60
2019-04-20T09:49:46.010Z,21.90
2019-04-20T09:52:17.270Z,22.10
2019-04-20T09:54:55.248Z,22.10
2019-04-20T09:57:30.912Z,22.50
2019-04-20T09:59:57.464Z,22.70
2019-04-20T10:02:20.134Z,22.80
2019-04-20T10:04:42.304Z,22.80
2019-04-20T10:07:17.593Z,22.60
2019-04-20T10:09:45.608Z,22.60
2019-04-20T10:12:15.714Z,22.70
2019-04-20T10:14:46.750Z,23.10
2019-04-20T10:17:17.914Z,23.10
2019-04-20T10:19:48.339Z,23.20
2019-04-20T10:22:18.428Z,23.50
2019-04-20T10:24:50.327Z,23.40
2019-04-20T10:27:20.827Z,23.40
2019-04-20T10:29:51.468Z,23.70
2019-04-20T10:32:25.122Z,23.60
2019-04-20T10:34:52.750Z,23.80
2019-04-20T10:37:24.168Z,23.20
2019-04-20T10:39:54.447Z,23.40
2019-04-20T10:42:24.225Z,23.00
2019-04-20T10:44:57.077Z,23.20
2019-04-20T10:47:25.355Z,23.60
2019-04-20T10:49:56.483Z,23.90
2019-04-20T10:52:27.751Z,24.10
2019-04-20T10:54:58.668Z,23.40
2019-04-20T10:57:28.410Z,24.00
2019-04-20T10:59:59.531Z,24.30
2019-04-20T11:02:29.850Z,24.70
2019-04-20T11:04:59.547Z,24.90
2019-04-20T11:07:30.387Z,24.30
2019-04-20T11:10:07.889Z,24.30
2019-04-20T11:12:32.483Z,24.10
2019-04-20T11:15:02.951Z,24.40
2019-04-20T11:17:33.408Z,24.90
2019-04-20T11:20:03.471Z,24.20
2019-04-20T11:22:33.108Z,24.40
2019-04-20T11:25:04.296Z,24.20
2019-04-20T11:27:34.204Z,24.50
2019-04-20T11:30:06.069Z,24.50
2019-04-20T11:32:36.024Z,24.80
2019-04-20T11:35:11.092Z,24.80
2019-04-20T11:37:37.747Z,24.80
2019-04-20T11:40:08.684Z,24.40
2019-04-20T11:42:39.382Z,24.60
2019-04-20T11:45:10.893Z,24.70
2019-04-20T11:47:40.619Z,25.40
2019-04-20T11:50:11.425Z,25.20
2019-04-20T11:52:44.584Z,25.20
2019-04-20T11:55:12.696Z,24.90
2019-04-20T11:57:43.156Z,25.00
2019-04-20T12:00:17.236Z,24.90
2019-04-20T12:03:15.013Z,25.30
2019-04-20T12:05:42.844Z,25.50
2019-04-20T12:08:09.383Z,25.30
2019-04-20T12:10:39.278Z,25.40
2019-04-20T12:13:10.203Z,24.80
2019-04-20T12:15:41.270Z,24.90
2019-04-20T12:18:11.636Z,25.50
2019-04-20T12:20:41.359Z,25.10
2019-04-20T12:23:12.687Z,24.90
2019-04-20T12:25:43.208Z,25.60
2019-04-20T12:28:13.749Z,25.90
2019-04-20T12:30:43.864Z,25.70
2019-04-20T12:33:13.712Z,25.70
2019-04-20T12:35:44.475Z,25.50
2019-04-20T12:38:14.901Z,25.30
2019-04-20T12:40:44.548Z,25.60
2019-04-20T12:43:15.158Z,25.50
2019-04-20T12:45:45.051Z,25.10
2019-04-20T12:48:15.616Z,25.20
2019-04-20T12:50:45.718Z,25.00
2019-04-20T12:53:16.913Z,24.90
2019-04-20T12:55:46.688Z,24.90
2019-04-20T12:58:16.749Z,24.70
2019-04-20T13:00:49.683Z,24.80
2019-04-20T13:03:21.288Z,25.30
2019-04-20T13:05:52.003Z,25.40
2019-04-20T13:08:29.589Z,25.10
2019-04-20T13:10:55.726Z,25.30
2019-04-20T13:13:28.192Z,25.20
2019-04-20T13:16:14.704Z,26.00
2019-04-20T13:18:47.500Z,26.10
2019-04-20T13:21:17.212Z,26.00
2019-04-20T13:23:47.116Z,25.50
2019-04-20T13:26:17.469Z,25.50
2019-04-20T13:28:47.193Z,25.40
2019-04-20T13:31:17.796Z,25.30
2019-04-20T13:33:47.699Z,25.80
2019-04-20T13:36:17.337Z,25.40
2019-04-20T13:38:47.968Z,25.40
2019-04-20T13:41:17.912Z,25.20
2019-04-20T13:43:48.104Z,25.50
2019-04-20T13:46:18.860Z,25.70
2019-04-20T13:48:48.915Z,25.70
2019-04-20T13:51:18.961Z,25.20
2019-04-20T13:53:49.249Z,25.60
2019-04-20T13:56:19.912Z,26.20
2019-04-20T13:59:03.772Z,25.50
2019-04-20T14:01:35.172Z,25.80
2019-04-20T14:04:22.998Z,25.70
2019-04-20T14:06:53.635Z,25.70
2019-04-20T14:09:23.607Z,25.30
2019-04-20T14:11:53.647Z,26.00
2019-04-20T14:14:23.507Z,25.80
2019-04-20T14:16:53.177Z,25.80
2019-04-20T14:19:23.227Z,26.00
2019-04-20T14:21:54.148Z,26.10
2019-04-20T14:24:24.819Z,25.90
2019-04-20T14:26:54.811Z,25.30
2019-04-20T14:29:25.172Z,25.50
2019-04-20T14:31:55.674Z,26.00
2019-04-20T14:34:26.912Z,25.90
2019-04-20T14:36:57.118Z,25.60
2019-04-20T14:39:27.941Z,26.10
2019-04-20T14:41:58.232Z,25.80
2019-04-20T14:44:27.954Z,26.00
2019-04-20T14:46:58.168Z,25.50
2019-04-20T14:49:28.484Z,25.20
2019-04-20T14:51:59.819Z,25.70
2019-04-20T14:54:29.666Z,25.40
2019-04-20T14:56:59.380Z,25.20
2019-04-20T14:59:31.668Z,25.20
2019-04-20T15:02:03.088Z,25.40
2019-04-20T15:04:34.629Z,25.80
2019-04-20T15:07:04.758Z,25.50
2019-04-20T15:09:37.030Z,25.20
2019-04-20T15:12:06.743Z,25.20
2019-04-20T15:14:36.784Z,25.20
2019-04-20T15:17:08.821Z,24.90
2019-04-20T15:19:57.235Z,25.20
2019-04-20T15:22:31.686Z,25.20
2019-04-20T15:25:01.449Z,25.20
2019-04-20T15:27:31.084Z,25.00
2019-04-20T15:30:00.730Z,25.00
2019-04-20T15:32:31.356Z,24.90
2019-04-20T15:35:01.140Z,24.90
2019-04-20T15:37:30.968Z,24.60
2019-04-20T15:40:01.205Z,24.50
2019-04-20T15:42:30.972Z,24.30
2019-04-20T15:45:01.135Z,24.30
2019-04-20T15:47:31.980Z,24.30
2019-04-20T15:50:02.268Z,24.20
2019-04-20T15:52:37.656Z,24.10
2019-04-20T15:55:11.830Z,23.90
2019-04-20T15:57:36.484Z,23.60
2019-04-20T16:00:08.757Z,23.70
2019-04-20T16:02:57.082Z,23.70
2019-04-20T16:05:31.190Z,23.70
2019-04-20T16:08:05.175Z,23.50
2019-04-20T16:10:34.724Z,23.40
2019-04-20T16:13:15.959Z,23.50
2019-04-20T16:15:35.951Z,23.50
2019-04-20T16:18:05.533Z,23.30
2019-04-20T16:20:47.325Z,23.10
2019-04-20T16:23:06.909Z,23.10
2019-04-20T16:25:47.811Z,23.10
2019-04-20T16:28:17.574Z,23.10
2019-04-20T16:30:47.555Z,22.90
2019-04-20T16:33:18.598Z,22.90
2019-04-20T16:35:48.308Z,22.90
2019-04-20T16:38:18.285Z,22.80
2019-04-20T16:40:48.385Z,22.80
2019-04-20T16:43:27.552Z,22.80
2019-04-20T16:45:49.339Z,22.60
2019-04-20T16:48:19.941Z,22.60
2019-04-20T16:50:50.934Z,22.60
2019-04-20T16:53:20.796Z,22.70
2019-04-20T16:55:50.621Z,22.70
2019-04-20T16:58:20.362Z,22.60
2019-04-20T17:00:50.085Z,22.50
2019-04-20T17:03:22.907Z,22.50
2019-04-20T17:05:51.427Z,22.40
2019-04-20T17:08:21.209Z,22.30
2019-04-20T17:10:51.703Z,22.30
2019-04-20T17:13:34.084Z,22.30
2019-04-20T17:15:52.745Z,22.20
2019-04-20T17:18:23.564Z,22.00
2019-04-20T17:20:54.586Z,21.80
2019-04-20T17:23:25.413Z,21.80
2019-04-20T17:25:57.819Z,21.80
2019-04-20T17:28:29.348Z,21.80
2019-04-20T17:31:15.888Z,21.80
2019-04-20T17:33:58.986Z,21.60
2019-04-20T17:36:23.354Z,21.40
2019-04-20T17:38:54.483Z,21.40
2019-04-20T17:41:43.163Z,21.30
2019-04-20T17:44:09.544Z,21.30
2019-04-20T17:46:37.177Z,21.20
2019-04-20T17:49:09.401Z,21.20
2019-04-20T17:51:49.087Z,21.00
2019-04-20T17:54:12.978Z,20.90
2019-04-20T17:56:42.645Z,20.90
2019-04-20T17:59:12.554Z,20.70
2019-04-20T18:02:09.759Z,20.80
2019-04-20T18:04:54.903Z,20.70
2019-04-20T18:07:26.976Z,20.60
2019-04-20T18:09:59.041Z,20.50
2019-04-20T18:12:07.600Z,20.40
2019-04-20T18:14:48.085Z,20.40
2019-04-20T18:17:22.015Z,20.20
2019-04-20T18:19:47.083Z,20.20
2019-04-20T18:22:16.776Z,20.30
2019-04-20T18:25:10.430Z,20.20
2019-04-20T18:27:39.934Z,20.10
2019-04-20T18:30:07.693Z,20.00
2019-04-20T18:32:29.091Z,19.90
2019-04-20T18:35:06.955Z,19.80
2019-04-20T18:37:34.559Z,19.40
2019-04-20T18:40:11.415Z,19.40
2019-04-20T18:42:42.101Z,19.50
2019-04-20T18:45:28.377Z,19.10
2019-04-20T18:48:02.752Z,18.80
2019-04-20T18:50:22.395Z,18.60
2019-04-20T18:52:45.396Z,18.40
2019-04-20T18:55:22.178Z,18.50
2019-04-20T18:57:47.025Z,18.10
2019-04-20T19:00:26.160Z,18.20
2019-04-20T19:02:53.583Z,18.00
2019-04-20T19:05:21.957Z,17.60
2019-04-20T19:07:59.158Z,17.50
2019-04-20T19:10:28.823Z,17.30
2019-04-20T19:13:01.565Z,17.60
2019-04-20T19:15:51.257Z,17.90
2019-04-20T19:18:42.732Z,17.70
2019-04-20T19:21:04.389Z,17.60
2019-04-20T19:23:36.606Z,17.30
2019-04-20T19:26:11.959Z,17.40
2019-04-20T19:28:44.464Z,17.20
2019-04-20T19:31:25.252Z,17.10
2019-04-20T19:34:01.830Z,17.00
2019-04-20T19:36:23.415Z,16.80
2019-04-20T19:38:58.030Z,16.80
2019-04-20T19:41:29.797Z,17.10
2019-04-20T19:43:57.302Z,17.10
2019-04-20T19:46:46.354Z,17.40
2019-04-20T19:48:56.679Z,17.40
2019-04-20T19:51:40.861Z,17.70
2019-04-20T19:54:13.210Z,17.50
2019-04-20T19:56:58.284Z,17.60
2019-04-20T19:59:23.342Z,17.40
2019-04-20T20:01:45.428Z,17.10
2019-04-20T20:04:15.768Z,17.30
2019-04-20T20:06:49.678Z,17.60
2019-04-20T20:09:18.238Z,17.70
2019-04-20T20:11:49.809Z,17.80
2019-04-20T20:14:30.600Z,17.80
2019-04-20T20:17:08.858Z,17.80
2019-04-20T20:19:44.632Z,18.00
2019-04-20T20:22:07.021Z,18.10
2019-04-20T20:24:25.197Z,18.20
2019-04-20T20:27:02.113Z,18.10
2019-04-20T20:29:34.268Z,18.10
2019-04-20T20:32:10.383Z,18.00
2019-04-20T20:34:36.395Z,18.10
2019-04-20T20:37:06.473Z,18.00
2019-04-20T20:39:35.127Z,18.10
2019-04-20T20:42:15.305Z,18.10
2019-04-20T20:44:47.900Z,18.00
2019-04-20T20:47:31.305Z,17.90
2019-04-20T20:50:04.048Z,18.00
2019-04-20T20:52:29.009Z,18.20
2019-04-20T20:54:56.323Z,18.20
2019-04-20T20:57:22.400Z,18.20
2019-04-20T20:59:55.291Z,18.10
2019-04-20T21:02:47.207Z,18.10
2019-04-20T21:05:11.658Z,18.00
2019-04-20T21:07:42.657Z,18.00
2019-04-20T21:10:15.338Z,17.90
2019-04-20T21:12:52.023Z,17.80
2019-04-20T21:15:20.972Z,17.80
2019-04-20T21:18:08.530Z,17.80
2019-04-20T21:20:38.140Z,17.90
2019-04-20T21:23:10.993Z,17.90
2019-04-20T21:25:34.531Z,18.00
2019-04-20T21:28:00.629Z,17.90
2019-04-20T21:30:35.102Z,17.80
2019-04-20T21:33:03.864Z,17.70
2019-04-20T21:35:39.338Z,17.80
2019-04-20T21:38:08.470Z,17.80
2019-04-20T21:40:40.137Z,17.70
2019-04-20T21:43:09.017Z,17.70
2019-04-20T21:45:39.422Z,17.60
2019-04-20T21:48:31.833Z,17.70
2019-04-20T21:50:59.822Z,17.40
2019-04-20T21:53:18.491Z,17.40
2019-04-20T21:55:44.144Z,17.30
2019-04-20T21:58:14.096Z,17.10
2019-04-20T22:00:59.587Z,17.00
2019-04-20T22:03:20.408Z,16.70
2019-04-20T22:05:52.564Z,16.10
2019-04-20T22:08:24.181Z,16.00
2019-04-20T22:10:55.359Z,15.60
2019-04-20T22:13:42.063Z,15.40
2019-04-20T22:16:12.524Z,15.10
2019-04-20T22:19:00.445Z,14.60
2019-04-20T22:21:21.855Z,14.90
2019-04-20T22:24:00.578Z,15.00
2019-04-20T22:26:26.726Z,14.90
2019-04-20T22:28:47.931Z,14.90
2019-04-20T22:31:18.337Z,15.10
2019-04-20T22:33:48.845Z,15.20
2019-04-20T22:36:20.203Z,15.50
2019-04-20T22:39:09.562Z,15.70
2019-04-20T22:41:47.966Z,15.70
2019-04-20T22:44:18.513Z,15.40
2019-04-20T22:46:45.817Z,14.90
2019-04-20T22:49:32.974Z,14.60
2019-04-20T22:51:58.863Z,14.70
2019-04-20T22:54:37.973Z,14.60
2019-04-20T22:57:02.431Z,14.70
2019-04-20T22:59:25.062Z,14.40
2019-04-20T23:01:58.227Z,14.30
2019-04-20T23:04:24.727Z,14.00
2019-04-20T23:06:55.859Z,13.90
2019-04-20T23:09:26.786Z,13.70
2019-04-20T23:12:03.546Z,13.70
2019-04-20T23:14:28.798Z,13.80
2019-04-20T23:16:59.798Z,13.70
2019-04-20T23:19:38.210Z,13.30
2019-04-20T23:22:04.765Z,13.30
2019-04-20T23:24:33.168Z,13.40
2019-04-20T23:27:04.970Z,13.30
2019-04-20T23:29:37.937Z,13.50
2019-04-20T23:32:09.805Z,13.00
2019-04-20T23:34:39.014Z,13.00
2019-04-20T23:37:16.065Z,12.70
2019-04-20T23:39:41.591Z,12.60
2019-04-20T23:42:14.100Z,12.20
2019-04-20T23:44:57.707Z,12.50
2019-04-20T23:47:27.898Z,12.20
2019-04-20T23:50:16.361Z,12.30
2019-04-20T23:52:57.949Z,12.40
2019-04-20T23:55:05.996Z,12.10
2019-04-20T23:57:33.709Z,11.80
